• Join FlightAware (Why Join?)
  • Login
  • US Flag 
07:05PM EDT


 

Airport Tracker/Info


-or-


 

Live Flight TrackerFlight Track Log ✈ FIN666 ✈ 15-Jan-2014 ✈ EKCH / CPH - EFHK / HEL

Flight Track Log - Related Links

Times and Time Zones

All times are in EST time to prevent confusion due to time zone crossing. See the FIN666 flight status page for this flight to view local times or setup timezone preferences in your user account.

Time Position Orientation Groundspeed Altitude Reporting Facility
EST Latitude Longitude Course Direction KTS MPH feet Rate Location/Type
07:29AM 55.8520 13.1400 49° Northeast  Level Estimated
07:30AM 55.9296 13.3027 50° Northeast  Level Estimated
07:31AM 56.0070 13.4660 50° Northeast  Level Estimated
07:32AM 56.0891 13.6404 50° Northeast  Level Estimated
07:33AM 56.1710 13.8155 50° Northeast  Level Estimated
07:34AM 56.2525 13.9914 50° Northeast  Level Estimated
07:35AM 56.3339 14.1680 50° Northeast  Level Estimated
07:36AM 56.4150 14.3454 50° Northeast  Level Estimated
07:37AM 56.4958 14.5235 51° Northeast  Level Estimated
07:38AM 56.5763 14.7024 51° Northeast  Level Estimated
07:39AM 56.6567 14.8820 51° Northeast  Level Estimated
07:40AM 56.7367 15.0625 51° Northeast  Level Estimated
07:41AM 56.8165 15.2437 51° Northeast  Level Estimated
07:42AM 56.8960 15.4256 51° Northeast  Level Estimated
07:43AM 56.9753 15.6084 51° Northeast  Level Estimated
07:44AM 57.0530 15.7890 52° Northeast  Level Estimated
07:45AM 57.1305 15.9704 52° Northeast  Level Estimated
07:46AM 57.2078 16.1526 52° Northeast  Level Estimated
07:47AM 57.2847 16.3355 52° Northeast  Level Estimated
07:48AM 57.3614 16.5192 52° Northeast  Level Estimated
07:49AM 57.4379 16.7036 52° Northeast  Level Estimated
07:50AM 57.5140 16.8889 53° Northeast  Level Estimated
07:51AM 57.5899 17.0749 53° Northeast  Level Estimated
07:52AM 57.6656 17.2616 53° Northeast  Level Estimated
07:53AM 57.7409 17.4492 53° Northeast  Level Estimated
07:54AM 57.8160 17.6375 53° Northeast  Level Estimated
07:55AM 57.8907 17.8267 53° Northeast  Level Estimated
07:56AM 57.9652 18.0166 53° Northeast  Level Estimated
07:57AM 58.0395 18.2073 54° Northeast  Level Estimated
07:58AM 58.1134 18.3988 54° Northeast  Level Estimated
07:59AM 58.1870 18.5910 54° Northeast  Level Estimated
08:00AM 58.2604 18.7841 54° Northeast  Level Estimated
08:01AM 58.3334 18.9780 54° Northeast  Level Estimated
08:02AM 58.4062 19.1727 54° Northeast  Level Estimated
08:03AM 58.4787 19.3682 55° Northeast  Level Estimated
08:04AM 58.5508 19.5645 55° Northeast  Level Estimated
08:05AM 58.6227 19.7616 55° Northeast  Level Estimated
08:06AM 58.6943 19.9595 55° Northeast  Level Estimated
08:07AM 58.7655 20.1582 55° Northeast  Level Estimated
08:08AM 58.8365 20.3577 55° Northeast  Level Estimated
08:09AM 58.9072 20.5581 56° Northeast  Level Estimated
08:10AM 58.9775 20.7593 56° Northeast  Level Estimated
08:11AM 59.0475 20.9613 56° Northeast  Level Estimated
08:12AM 59.1172 21.1641 56° Northeast  Level Estimated
08:13AM 59.1866 21.3678 56° Northeast  Level Estimated
08:14AM 59.2557 21.5722 56° Northeast  Level Estimated
08:15AM 59.3244 21.7775 57° Northeast  Level Estimated
08:16AM 59.3929 21.9837 57° Northeast  Level Estimated
08:17AM 59.4610 22.1906 57° Northeast  Level Estimated
08:18AM 59.5287 22.3984 57° Northeast  Level Estimated
08:19AM 59.5962 22.6070 57° Northeast  Level Estimated
08:20AM 59.6633 22.8165 58° Northeast  Level Estimated
08:21AM 59.7300 23.0268 58° Northeast  Level Estimated
08:22AM 59.7965 23.2380 58° Northeast  Level Estimated
08:23AM 59.8626 23.4500 58° Northeast  Level Estimated
08:24AM 59.9283 23.6628 58° Northeast  Level Estimated
08:25AM 59.9937 23.8765 58° Northeast  Level Estimated
08:26AM 60.0588 24.0910 59° Northeast  Level Estimated
08:27AM 60.1235 24.3063 59° Northeast  Level Estimated
08:28AM 60.1879 24.5226 59° Northeast  Level Estimated
08:29AM 60.2519 24.7396 59° Northeast  Level Estimated
08:30AM 60.3155 24.9575 59° Northeast  Level Estimated
08:31AM 60.3172 24.9633 60° Northeast  Level Estimated
08:32AM 60.3172 24.9633 37° Northeast  Level Estimated
08:33AM 60.3172 24.9633 37° Northeast  Level Estimated
08:34AM 60.3172 24.9633 37° Northeast  Level Estimated
08:35AM 60.3172 24.9633 37° Northeast  Level Estimated
08:36AM 60.3172 24.9633 37° Northeast  Level Estimated
08:37AM 60.3172 24.9633 37° Northeast  Level Estimated
08:38AM 60.3172 24.9633 37° Northeast  Level Estimated
08:39AM 60.3172 24.9633 37° Northeast  Level Estimated
08:40AM 60.3172 24.9633 37° Northeast  Level Estimated
08:41AM 60.3172 24.9633 37° Northeast  Level Estimated
08:42AM 60.3172 24.9633 37° Northeast  Level Estimated
08:43AM 60.3172 24.9633 37° Northeast  Level Estimated
08:44AM 60.3172 24.9633 37° Northeast  Level Estimated
08:45AM 60.3172 24.9633 37° Northeast  Level Estimated
08:46AM 60.3172 24.9633 37° Northeast  Level Estimated
08:47AM 60.3172 24.9633 37° Northeast  Level Estimated